sensor_id;sensor_type;location;lat;lon;timestamp;P1;durP1;ratioP1;P2;durP2;ratioP2
13250;SDS011;6692;50.710;7.180;2022-12-18T00:01:28;29.37;;;16.80;;
13250;SDS011;6692;50.710;7.180;2022-12-18T00:03:29;26.33;;;15.00;;
13250;SDS011;6692;50.710;7.180;2022-12-18T00:05:30;28.33;;;16.00;;
13250;SDS011;6692;50.710;7.180;2022-12-18T00:07:30;25.40;;;15.90;;
13250;SDS011;6692;50.710;7.180;2022-12-18T00:09:31;25.80;;;14.93;;
13250;SDS011;6692;50.710;7.180;2022-12-18T00:11:32;25.20;;;15.20;;
13250;SDS011;6692;50.710;7.180;2022-12-18T00:13:33;26.73;;;14.10;;
13250;SDS011;6692;50.710;7.180;2022-12-18T00:15:34;27.73;;;15.38;;
13250;SDS011;6692;50.710;7.180;2022-12-18T00:17:35;23.47;;;13.70;;
13250;SDS011;6692;50.710;7.180;2022-12-18T00:19:36;22.35;;;13.77;;
13250;SDS011;6692;50.710;7.180;2022-12-18T00:21:36;26.57;;;14.60;;
13250;SDS011;6692;50.710;7.180;2022-12-18T00:23:37;24.23;;;14.13;;
13250;SDS011;6692;50.710;7.180;2022-12-18T00:25:38;23.90;;;13.93;;
13250;SDS011;6692;50.710;7.180;2022-12-18T00:27:38;25.60;;;13.73;;
13250;SDS011;6692;50.710;7.180;2022-12-18T00:29:39;30.53;;;15.40;;
13250;SDS011;6692;50.710;7.180;2022-12-18T00:31:40;25.97;;;14.03;;
13250;SDS011;6692;50.710;7.180;2022-12-18T00:33:40;25.60;;;13.67;;
13250;SDS011;6692;50.710;7.180;2022-12-18T00:35:41;27.33;;;15.10;;
13250;SDS011;6692;50.710;7.180;2022-12-18T00:37:42;23.70;;;14.73;;
13250;SDS011;6692;50.710;7.180;2022-12-18T00:39:43;30.92;;;15.50;;
13250;SDS011;6692;50.710;7.180;2022-12-18T00:41:44;24.23;;;14.40;;
13250;SDS011;6692;50.710;7.180;2022-12-18T00:43:52;26.35;;;14.93;;
13250;SDS011;6692;50.710;7.180;2022-12-18T00:45:53;22.42;;;13.62;;
13250;SDS011;6692;50.710;7.180;2022-12-18T00:47:55;25.77;;;14.83;;
13250;SDS011;6692;50.710;7.180;2022-12-18T00:49:54;25.60;;;14.83;;
13250;SDS011;6692;50.710;7.180;2022-12-18T00:51:55;26.53;;;15.40;;
13250;SDS011;6692;50.710;7.180;2022-12-18T00:53:55;24.93;;;13.93;;
13250;SDS011;6692;50.710;7.180;2022-12-18T00:55:57;25.90;;;14.17;;
13250;SDS011;6692;50.710;7.180;2022-12-18T00:57:57;23.42;;;13.50;;
13250;SDS011;6692;50.710;7.180;2022-12-18T00:59:58;21.83;;;13.67;;
13250;SDS011;6692;50.710;7.180;2022-12-18T01:01:59;26.20;;;14.33;;
13250;SDS011;6692;50.710;7.180;2022-12-18T01:04:01;23.00;;;14.10;;
13250;SDS011;6692;50.710;7.180;2022-12-18T01:06:06;22.23;;;13.93;;
13250;SDS011;6692;50.710;7.180;2022-12-18T01:08:08;23.08;;;14.13;;
13250;SDS011;6692;50.710;7.180;2022-12-18T01:10:09;22.40;;;13.77;;
13250;SDS011;6692;50.710;7.180;2022-12-18T01:12:09;25.60;;;14.50;;
13250;SDS011;6692;50.710;7.180;2022-12-18T01:14:10;22.70;;;14.50;;
13250;SDS011;6692;50.710;7.180;2022-12-18T01:16:12;26.30;;;14.87;;
13250;SDS011;6692;50.710;7.180;2022-12-18T01:18:11;23.03;;;13.13;;
13250;SDS011;6692;50.710;7.180;2022-12-18T01:20:12;21.03;;;13.23;;
13250;SDS011;6692;50.710;7.180;2022-12-18T01:22:13;23.70;;;13.63;;
13250;SDS011;6692;50.710;7.180;2022-12-18T01:24:13;21.67;;;13.00;;
13250;SDS011;6692;50.710;7.180;2022-12-18T01:26:15;20.00;;;12.40;;
13250;SDS011;6692;50.710;7.180;2022-12-18T01:28:15;24.33;;;13.83;;
13250;SDS011;6692;50.710;7.180;2022-12-18T01:30:15;23.90;;;13.33;;
13250;SDS011;6692;50.710;7.180;2022-12-18T01:32:16;25.00;;;14.20;;
13250;SDS011;6692;50.710;7.180;2022-12-18T01:34:17;21.20;;;13.23;;
13250;SDS011;6692;50.710;7.180;2022-12-18T01:36:20;22.83;;;13.47;;
13250;SDS011;6692;50.710;7.180;2022-12-18T01:38:19;28.55;;;14.35;;
13250;SDS011;6692;50.710;7.180;2022-12-18T01:40:20;23.57;;;13.27;;
13250;SDS011;6692;50.710;7.180;2022-12-18T01:42:20;26.00;;;13.53;;
13250;SDS011;6692;50.710;7.180;2022-12-18T01:46:35;24.45;;;13.52;;
13250;SDS011;6692;50.710;7.180;2022-12-18T01:48:36;25.58;;;13.60;;
13250;SDS011;6692;50.710;7.180;2022-12-18T01:50:37;24.13;;;12.87;;
13250;SDS011;6692;50.710;7.180;2022-12-18T01:52:37;26.07;;;13.67;;
13250;SDS011;6692;50.710;7.180;2022-12-18T01:54:39;26.30;;;13.18;;
13250;SDS011;6692;50.710;7.180;2022-12-18T01:56:40;30.33;;;15.20;;
13250;SDS011;6692;50.710;7.180;2022-12-18T01:59:03;25.53;;;14.23;;
13250;SDS011;6692;50.710;7.180;2022-12-18T02:01:02;24.55;;;13.23;;
13250;SDS011;6692;50.710;7.180;2022-12-18T02:03:04;24.43;;;13.67;;
13250;SDS011;6692;50.710;7.180;2022-12-18T02:05:05;27.95;;;15.35;;
13250;SDS011;6692;50.710;7.180;2022-12-18T02:07:29;23.87;;;14.15;;
13250;SDS011;6692;50.710;7.180;2022-12-18T02:09:34;24.48;;;14.07;;
13250;SDS011;6692;50.710;7.180;2022-12-18T02:11:39;28.87;;;15.15;;
13250;SDS011;6692;50.710;7.180;2022-12-18T02:13:59;27.65;;;14.93;;
13250;SDS011;6692;50.710;7.180;2022-12-18T02:18:25;25.45;;;15.27;;
13250;SDS011;6692;50.710;7.180;2022-12-18T02:20:31;27.60;;;14.33;;
13250;SDS011;6692;50.710;7.180;2022-12-18T02:22:41;21.27;;;12.95;;
13250;SDS011;6692;50.710;7.180;2022-12-18T02:25:05;22.08;;;12.60;;
13250;SDS011;6692;50.710;7.180;2022-12-18T02:27:03;24.45;;;13.73;;
13250;SDS011;6692;50.710;7.180;2022-12-18T02:29:03;25.53;;;14.37;;
13250;SDS011;6692;50.710;7.180;2022-12-18T02:31:04;23.70;;;14.53;;
13250;SDS011;6692;50.710;7.180;2022-12-18T02:33:04;27.67;;;13.88;;
13250;SDS011;6692;50.710;7.180;2022-12-18T02:35:05;23.47;;;13.60;;
13250;SDS011;6692;50.710;7.180;2022-12-18T02:37:08;24.67;;;13.70;;
13250;SDS011;6692;50.710;7.180;2022-12-18T02:39:09;33.53;;;16.33;;
13250;SDS011;6692;50.710;7.180;2022-12-18T02:41:08;29.37;;;15.47;;
13250;SDS011;6692;50.710;7.180;2022-12-18T02:43:10;26.40;;;15.53;;
13250;SDS011;6692;50.710;7.180;2022-12-18T02:45:10;28.00;;;15.77;;
13250;SDS011;6692;50.710;7.180;2022-12-18T02:47:12;26.55;;;14.18;;
13250;SDS011;6692;50.710;7.180;2022-12-18T02:49:22;26.30;;;15.45;;
13250;SDS011;6692;50.710;7.180;2022-12-18T02:51:29;27.42;;;15.10;;
13250;SDS011;6692;50.710;7.180;2022-12-18T02:53:28;26.37;;;15.00;;
13250;SDS011;6692;50.710;7.180;2022-12-18T02:55:34;26.90;;;15.70;;
13250;SDS011;6692;50.710;7.180;2022-12-18T02:57:37;28.05;;;15.10;;
13250;SDS011;6692;50.710;7.180;2022-12-18T02:59:40;26.05;;;14.30;;
13250;SDS011;6692;50.710;7.180;2022-12-18T03:03:52;27.83;;;14.57;;
13250;SDS011;6692;50.710;7.180;2022-12-18T03:05:53;25.98;;;13.90;;
13250;SDS011;6692;50.710;7.180;2022-12-18T03:07:56;27.67;;;15.15;;
13250;SDS011;6692;50.710;7.180;2022-12-18T03:09:57;26.02;;;14.52;;
13250;SDS011;6692;50.710;7.180;2022-12-18T03:12:00;21.87;;;12.93;;
13250;SDS011;6692;50.710;7.180;2022-12-18T03:14:04;27.45;;;14.70;;
13250;SDS011;6692;50.710;7.180;2022-12-18T03:16:05;27.20;;;13.83;;
13250;SDS011;6692;50.710;7.180;2022-12-18T03:18:10;24.87;;;13.82;;
13250;SDS011;6692;50.710;7.180;2022-12-18T03:20:13;22.85;;;13.43;;
13250;SDS011;6692;50.710;7.180;2022-12-18T03:22:13;25.27;;;14.23;;
13250;SDS011;6692;50.710;7.180;2022-12-18T03:24:13;24.98;;;15.10;;
13250;SDS011;6692;50.710;7.180;2022-12-18T03:26:15;28.03;;;15.67;;
13250;SDS011;6692;50.710;7.180;2022-12-18T03:28:16;24.73;;;14.52;;
13250;SDS011;6692;50.710;7.180;2022-12-18T03:30:16;25.90;;;13.43;;
13250;SDS011;6692;50.710;7.180;2022-12-18T03:32:21;24.47;;;14.77;;
13250;SDS011;6692;50.710;7.180;2022-12-18T03:34:23;28.60;;;15.50;;
13250;SDS011;6692;50.710;7.180;2022-12-18T03:36:23;24.95;;;14.10;;
13250;SDS011;6692;50.710;7.180;2022-12-18T03:38:24;22.43;;;13.20;;
13250;SDS011;6692;50.710;7.180;2022-12-18T03:40:27;29.33;;;14.97;;
13250;SDS011;6692;50.710;7.180;2022-12-18T03:42:32;24.27;;;13.17;;
13250;SDS011;6692;50.710;7.180;2022-12-18T03:44:32;25.08;;;13.70;;
13250;SDS011;6692;50.710;7.180;2022-12-18T03:46:33;24.47;;;13.80;;
13250;SDS011;6692;50.710;7.180;2022-12-18T03:48:38;23.02;;;13.73;;
13250;SDS011;6692;50.710;7.180;2022-12-18T03:50:45;28.10;;;13.57;;
13250;SDS011;6692;50.710;7.180;2022-12-18T03:52:59;22.95;;;13.85;;
13250;SDS011;6692;50.710;7.180;2022-12-18T03:54:58;21.07;;;13.17;;
13250;SDS011;6692;50.710;7.180;2022-12-18T03:57:04;23.87;;;13.47;;
13250;SDS011;6692;50.710;7.180;2022-12-18T03:59:20;18.55;;;12.40;;
13250;SDS011;6692;50.710;7.180;2022-12-18T04:01:22;24.73;;;13.30;;
13250;SDS011;6692;50.710;7.180;2022-12-18T04:03:22;22.20;;;12.53;;
13250;SDS011;6692;50.710;7.180;2022-12-18T04:05:22;24.00;;;12.20;;
13250;SDS011;6692;50.710;7.180;2022-12-18T04:07:23;23.63;;;13.53;;
13250;SDS011;6692;50.710;7.180;2022-12-18T04:09:24;24.93;;;13.53;;
13250;SDS011;6692;50.710;7.180;2022-12-18T04:11:24;25.70;;;13.97;;
13250;SDS011;6692;50.710;7.180;2022-12-18T04:13:28;24.17;;;13.00;;
13250;SDS011;6692;50.710;7.180;2022-12-18T04:15:28;25.42;;;13.90;;
13250;SDS011;6692;50.710;7.180;2022-12-18T04:17:29;22.97;;;12.97;;
13250;SDS011;6692;50.710;7.180;2022-12-18T04:19:30;23.25;;;13.05;;
13250;SDS011;6692;50.710;7.180;2022-12-18T04:21:30;26.20;;;13.97;;
13250;SDS011;6692;50.710;7.180;2022-12-18T04:23:31;22.50;;;12.93;;
13250;SDS011;6692;50.710;7.180;2022-12-18T04:25:32;23.23;;;13.57;;
13250;SDS011;6692;50.710;7.180;2022-12-18T04:27:33;24.47;;;12.93;;
13250;SDS011;6692;50.710;7.180;2022-12-18T04:29:35;24.27;;;13.55;;
13250;SDS011;6692;50.710;7.180;2022-12-18T04:31:35;23.23;;;13.38;;
13250;SDS011;6692;50.710;7.180;2022-12-18T04:33:36;24.23;;;13.67;;
13250;SDS011;6692;50.710;7.180;2022-12-18T04:35:37;24.97;;;13.70;;
13250;SDS011;6692;50.710;7.180;2022-12-18T04:37:38;22.73;;;14.37;;
13250;SDS011;6692;50.710;7.180;2022-12-18T04:39:39;20.33;;;12.45;;
13250;SDS011;6692;50.710;7.180;2022-12-18T04:41:40;25.43;;;13.17;;
13250;SDS011;6692;50.710;7.180;2022-12-18T04:43:40;22.23;;;13.00;;
13250;SDS011;6692;50.710;7.180;2022-12-18T04:45:41;22.07;;;13.00;;
13250;SDS011;6692;50.710;7.180;2022-12-18T04:47:42;21.27;;;12.63;;
13250;SDS011;6692;50.710;7.180;2022-12-18T04:49:42;20.50;;;12.17;;
13250;SDS011;6692;50.710;7.180;2022-12-18T04:51:43;23.60;;;13.90;;
13250;SDS011;6692;50.710;7.180;2022-12-18T04:53:44;23.60;;;13.00;;
13250;SDS011;6692;50.710;7.180;2022-12-18T04:55:44;28.33;;;13.13;;
13250;SDS011;6692;50.710;7.180;2022-12-18T04:57:45;23.13;;;13.40;;
13250;SDS011;6692;50.710;7.180;2022-12-18T04:59:46;20.63;;;11.27;;
13250;SDS011;6692;50.710;7.180;2022-12-18T05:01:47;21.20;;;12.03;;
13250;SDS011;6692;50.710;7.180;2022-12-18T05:03:48;26.12;;;12.85;;
13250;SDS011;6692;50.710;7.180;2022-12-18T05:05:50;20.90;;;12.60;;
13250;SDS011;6692;50.710;7.180;2022-12-18T05:07:51;21.85;;;12.90;;
13250;SDS011;6692;50.710;7.180;2022-12-18T05:09:53;20.80;;;11.45;;
13250;SDS011;6692;50.710;7.180;2022-12-18T05:11:54;23.50;;;12.17;;
13250;SDS011;6692;50.710;7.180;2022-12-18T05:13:54;23.30;;;12.00;;
13250;SDS011;6692;50.710;7.180;2022-12-18T05:15:55;20.63;;;12.87;;
13250;SDS011;6692;50.710;7.180;2022-12-18T05:17:57;21.37;;;12.47;;
13250;SDS011;6692;50.710;7.180;2022-12-18T05:19:57;23.30;;;12.82;;
13250;SDS011;6692;50.710;7.180;2022-12-18T05:21:59;23.40;;;12.93;;
13250;SDS011;6692;50.710;7.180;2022-12-18T05:23:59;20.83;;;12.35;;
13250;SDS011;6692;50.710;7.180;2022-12-18T05:26:01;23.93;;;12.43;;
13250;SDS011;6692;50.710;7.180;2022-12-18T05:28:01;26.90;;;13.47;;
13250;SDS011;6692;50.710;7.180;2022-12-18T05:30:01;22.87;;;12.43;;
13250;SDS011;6692;50.710;7.180;2022-12-18T05:32:02;20.65;;;12.27;;
13250;SDS011;6692;50.710;7.180;2022-12-18T05:34:04;26.33;;;13.25;;
13250;SDS011;6692;50.710;7.180;2022-12-18T05:36:05;21.37;;;11.63;;
13250;SDS011;6692;50.710;7.180;2022-12-18T05:38:05;25.33;;;12.30;;
13250;SDS011;6692;50.710;7.180;2022-12-18T05:40:06;21.33;;;11.70;;
13250;SDS011;6692;50.710;7.180;2022-12-18T05:42:09;24.45;;;12.32;;
13250;SDS011;6692;50.710;7.180;2022-12-18T05:44:11;21.30;;;12.10;;
13250;SDS011;6692;50.710;7.180;2022-12-18T05:46:13;24.85;;;11.85;;
13250;SDS011;6692;50.710;7.180;2022-12-18T05:48:13;21.70;;;13.07;;
13250;SDS011;6692;50.710;7.180;2022-12-18T05:50:13;23.20;;;11.70;;
13250;SDS011;6692;50.710;7.180;2022-12-18T05:52:14;20.30;;;11.27;;
13250;SDS011;6692;50.710;7.180;2022-12-18T05:54:15;22.48;;;12.07;;
13250;SDS011;6692;50.710;7.180;2022-12-18T05:56:18;23.40;;;11.67;;
13250;SDS011;6692;50.710;7.180;2022-12-18T05:58:17;22.73;;;11.77;;
13250;SDS011;6692;50.710;7.180;2022-12-18T06:00:18;21.03;;;12.40;;
13250;SDS011;6692;50.710;7.180;2022-12-18T06:02:19;21.63;;;12.47;;
13250;SDS011;6692;50.710;7.180;2022-12-18T06:04:19;21.20;;;13.03;;
13250;SDS011;6692;50.710;7.180;2022-12-18T06:06:21;21.60;;;12.00;;
13250;SDS011;6692;50.710;7.180;2022-12-18T06:08:21;26.37;;;13.53;;
13250;SDS011;6692;50.710;7.180;2022-12-18T06:10:21;22.27;;;11.83;;
13250;SDS011;6692;50.710;7.180;2022-12-18T06:12:22;23.07;;;12.47;;
13250;SDS011;6692;50.710;7.180;2022-12-18T06:14:23;19.60;;;11.73;;
13250;SDS011;6692;50.710;7.180;2022-12-18T06:16:24;25.17;;;12.98;;
13250;SDS011;6692;50.710;7.180;2022-12-18T06:18:25;21.87;;;12.20;;
13250;SDS011;6692;50.710;7.180;2022-12-18T06:20:25;23.17;;;12.63;;
13250;SDS011;6692;50.710;7.180;2022-12-18T06:22:26;22.63;;;12.03;;
13250;SDS011;6692;50.710;7.180;2022-12-18T06:24:27;20.52;;;11.77;;
13250;SDS011;6692;50.710;7.180;2022-12-18T06:26:28;27.50;;;13.83;;
13250;SDS011;6692;50.710;7.180;2022-12-18T06:28:28;25.27;;;13.93;;
13250;SDS011;6692;50.710;7.180;2022-12-18T06:30:29;23.83;;;12.20;;
13250;SDS011;6692;50.710;7.180;2022-12-18T06:32:30;24.47;;;13.03;;
13250;SDS011;6692;50.710;7.180;2022-12-18T06:34:30;23.30;;;12.87;;
13250;SDS011;6692;50.710;7.180;2022-12-18T06:36:31;23.63;;;13.37;;
13250;SDS011;6692;50.710;7.180;2022-12-18T06:38:32;21.87;;;11.97;;
13250;SDS011;6692;50.710;7.180;2022-12-18T06:40:33;24.40;;;12.77;;
13250;SDS011;6692;50.710;7.180;2022-12-18T06:42:34;28.12;;;14.73;;
13250;SDS011;6692;50.710;7.180;2022-12-18T06:44:34;28.07;;;14.27;;
13250;SDS011;6692;50.710;7.180;2022-12-18T06:46:35;24.57;;;13.70;;
13250;SDS011;6692;50.710;7.180;2022-12-18T06:48:36;25.37;;;13.50;;
13250;SDS011;6692;50.710;7.180;2022-12-18T06:50:36;29.10;;;14.67;;
13250;SDS011;6692;50.710;7.180;2022-12-18T06:52:37;24.73;;;14.20;;
13250;SDS011;6692;50.710;7.180;2022-12-18T06:54:38;29.00;;;15.00;;
13250;SDS011;6692;50.710;7.180;2022-12-18T06:56:39;25.42;;;13.90;;
13250;SDS011;6692;50.710;7.180;2022-12-18T06:58:40;24.77;;;13.87;;
13250;SDS011;6692;50.710;7.180;2022-12-18T07:00:41;25.10;;;14.07;;
13250;SDS011;6692;50.710;7.180;2022-12-18T07:02:42;25.43;;;14.50;;
13250;SDS011;6692;50.710;7.180;2022-12-18T07:04:43;28.38;;;14.27;;
13250;SDS011;6692;50.710;7.180;2022-12-18T07:06:43;23.00;;;13.17;;
13250;SDS011;6692;50.710;7.180;2022-12-18T07:08:44;26.83;;;14.63;;
13250;SDS011;6692;50.710;7.180;2022-12-18T07:10:45;22.30;;;13.33;;
13250;SDS011;6692;50.710;7.180;2022-12-18T07:12:47;23.05;;;13.98;;
13250;SDS011;6692;50.710;7.180;2022-12-18T07:14:48;22.42;;;13.70;;
13250;SDS011;6692;50.710;7.180;2022-12-18T07:16:49;22.57;;;12.80;;
13250;SDS011;6692;50.710;7.180;2022-12-18T07:18:50;28.23;;;13.65;;
13250;SDS011;6692;50.710;7.180;2022-12-18T07:20:51;19.93;;;12.37;;
13250;SDS011;6692;50.710;7.180;2022-12-18T07:22:52;20.30;;;11.98;;
13250;SDS011;6692;50.710;7.180;2022-12-18T07:24:53;22.37;;;12.53;;
13250;SDS011;6692;50.710;7.180;2022-12-18T07:26:54;22.70;;;12.17;;
13250;SDS011;6692;50.710;7.180;2022-12-18T07:28:55;23.63;;;12.37;;
13250;SDS011;6692;50.710;7.180;2022-12-18T07:30:55;22.13;;;12.73;;
13250;SDS011;6692;50.710;7.180;2022-12-18T07:32:56;19.57;;;11.67;;
13250;SDS011;6692;50.710;7.180;2022-12-18T07:34:58;22.92;;;12.18;;
13250;SDS011;6692;50.710;7.180;2022-12-18T07:36:58;23.10;;;12.93;;
13250;SDS011;6692;50.710;7.180;2022-12-18T07:38:59;19.90;;;11.50;;
13250;SDS011;6692;50.710;7.180;2022-12-18T07:41:00;20.13;;;11.63;;
13250;SDS011;6692;50.710;7.180;2022-12-18T07:43:00;22.70;;;12.03;;
13250;SDS011;6692;50.710;7.180;2022-12-18T07:45:01;24.83;;;13.27;;
13250;SDS011;6692;50.710;7.180;2022-12-18T07:47:02;20.93;;;11.97;;
13250;SDS011;6692;50.710;7.180;2022-12-18T07:49:02;25.30;;;15.63;;
13250;SDS011;6692;50.710;7.180;2022-12-18T07:51:04;29.20;;;15.87;;
13250;SDS011;6692;50.710;7.180;2022-12-18T07:53:04;24.37;;;15.53;;
13250;SDS011;6692;50.710;7.180;2022-12-18T07:55:06;27.43;;;16.67;;
13250;SDS011;6692;50.710;7.180;2022-12-18T07:57:08;38.92;;;22.42;;
13250;SDS011;6692;50.710;7.180;2022-12-18T07:59:08;34.25;;;21.00;;
13250;SDS011;6692;50.710;7.180;2022-12-18T08:01:11;32.63;;;19.27;;
13250;SDS011;6692;50.710;7.180;2022-12-18T08:03:10;29.83;;;17.27;;
13250;SDS011;6692;50.710;7.180;2022-12-18T08:05:10;27.90;;;17.00;;
13250;SDS011;6692;50.710;7.180;2022-12-18T08:07:11;25.47;;;15.50;;
13250;SDS011;6692;50.710;7.180;2022-12-18T08:09:12;28.23;;;16.47;;
13250;SDS011;6692;50.710;7.180;2022-12-18T08:11:13;25.43;;;16.17;;
13250;SDS011;6692;50.710;7.180;2022-12-18T08:13:14;31.03;;;17.43;;
13250;SDS011;6692;50.710;7.180;2022-12-18T08:15:15;26.98;;;17.85;;
13250;SDS011;6692;50.710;7.180;2022-12-18T08:17:15;27.93;;;17.17;;
13250;SDS011;6692;50.710;7.180;2022-12-18T08:19:16;26.67;;;16.43;;
13250;SDS011;6692;50.710;7.180;2022-12-18T08:21:18;25.17;;;16.70;;
13250;SDS011;6692;50.710;7.180;2022-12-18T08:23:18;24.50;;;14.47;;
13250;SDS011;6692;50.710;7.180;2022-12-18T08:25:19;24.90;;;14.87;;
13250;SDS011;6692;50.710;7.180;2022-12-18T08:27:19;24.77;;;14.43;;
13250;SDS011;6692;50.710;7.180;2022-12-18T08:29:21;35.63;;;24.60;;
13250;SDS011;6692;50.710;7.180;2022-12-18T08:31:22;33.95;;;21.90;;
13250;SDS011;6692;50.710;7.180;2022-12-18T08:33:24;31.87;;;19.93;;
13250;SDS011;6692;50.710;7.180;2022-12-18T08:35:24;31.10;;;18.67;;
13250;SDS011;6692;50.710;7.180;2022-12-18T08:37:25;28.50;;;19.90;;
13250;SDS011;6692;50.710;7.180;2022-12-18T08:39:26;28.37;;;17.87;;
13250;SDS011;6692;50.710;7.180;2022-12-18T08:41:26;27.70;;;17.77;;
13250;SDS011;6692;50.710;7.180;2022-12-18T08:43:27;25.40;;;17.07;;
13250;SDS011;6692;50.710;7.180;2022-12-18T08:45:34;27.98;;;16.87;;
13250;SDS011;6692;50.710;7.180;2022-12-18T08:47:34;27.07;;;16.87;;
13250;SDS011;6692;50.710;7.180;2022-12-18T08:49:35;29.03;;;16.27;;
13250;SDS011;6692;50.710;7.180;2022-12-18T08:51:37;30.23;;;17.30;;
13250;SDS011;6692;50.710;7.180;2022-12-18T08:53:38;26.83;;;15.50;;
13250;SDS011;6692;50.710;7.180;2022-12-18T08:55:39;25.83;;;16.98;;
13250;SDS011;6692;50.710;7.180;2022-12-18T08:57:40;30.07;;;17.03;;
13250;SDS011;6692;50.710;7.180;2022-12-18T08:59:40;26.37;;;15.83;;
13250;SDS011;6692;50.710;7.180;2022-12-18T09:01:41;35.23;;;19.47;;
13250;SDS011;6692;50.710;7.180;2022-12-18T09:03:42;32.87;;;19.73;;
13250;SDS011;6692;50.710;7.180;2022-12-18T09:05:43;34.77;;;21.17;;
13250;SDS011;6692;50.710;7.180;2022-12-18T09:07:43;40.13;;;22.17;;
13250;SDS011;6692;50.710;7.180;2022-12-18T09:09:44;33.23;;;21.43;;
13250;SDS011;6692;50.710;7.180;2022-12-18T09:11:44;35.80;;;21.97;;
13250;SDS011;6692;50.710;7.180;2022-12-18T09:13:45;37.73;;;21.90;;
13250;SDS011;6692;50.710;7.180;2022-12-18T09:15:48;36.47;;;21.43;;
13250;SDS011;6692;50.710;7.180;2022-12-18T09:17:47;33.10;;;20.73;;
13250;SDS011;6692;50.710;7.180;2022-12-18T09:19:48;35.37;;;20.67;;
13250;SDS011;6692;50.710;7.180;2022-12-18T09:21:48;33.33;;;20.57;;
13250;SDS011;6692;50.710;7.180;2022-12-18T09:23:49;40.20;;;23.20;;
13250;SDS011;6692;50.710;7.180;2022-12-18T09:25:50;40.27;;;21.53;;
13250;SDS011;6692;50.710;7.180;2022-12-18T09:27:51;32.77;;;19.97;;
13250;SDS011;6692;50.710;7.180;2022-12-18T09:29:51;29.77;;;19.30;;
13250;SDS011;6692;50.710;7.180;2022-12-18T09:31:52;31.77;;;19.80;;
13250;SDS011;6692;50.710;7.180;2022-12-18T09:33:54;36.40;;;22.40;;
13250;SDS011;6692;50.710;7.180;2022-12-18T09:35:54;36.80;;;21.63;;
13250;SDS011;6692;50.710;7.180;2022-12-18T09:37:55;35.55;;;20.83;;
13250;SDS011;6692;50.710;7.180;2022-12-18T09:39:56;36.58;;;20.60;;
13250;SDS011;6692;50.710;7.180;2022-12-18T09:41:57;31.83;;;20.10;;
13250;SDS011;6692;50.710;7.180;2022-12-18T09:43:59;35.23;;;20.57;;
13250;SDS011;6692;50.710;7.180;2022-12-18T09:46:01;32.70;;;19.05;;
13250;SDS011;6692;50.710;7.180;2022-12-18T09:48:00;29.47;;;18.17;;
13250;SDS011;6692;50.710;7.180;2022-12-18T09:50:03;28.95;;;17.25;;
13250;SDS011;6692;50.710;7.180;2022-12-18T09:52:05;30.87;;;18.27;;
13250;SDS011;6692;50.710;7.180;2022-12-18T09:54:05;33.80;;;20.20;;
13250;SDS011;6692;50.710;7.180;2022-12-18T09:56:05;34.88;;;20.65;;
13250;SDS011;6692;50.710;7.180;2022-12-18T09:58:07;33.72;;;19.80;;
13250;SDS011;6692;50.710;7.180;2022-12-18T10:02:25;29.70;;;18.02;;
13250;SDS011;6692;50.710;7.180;2022-12-18T10:04:25;30.93;;;18.60;;
13250;SDS011;6692;50.710;7.180;2022-12-18T10:06:32;29.23;;;18.90;;
13250;SDS011;6692;50.710;7.180;2022-12-18T10:10:51;30.67;;;18.80;;
13250;SDS011;6692;50.710;7.180;2022-12-18T10:12:56;33.50;;;19.27;;
13250;SDS011;6692;50.710;7.180;2022-12-18T10:14:57;29.37;;;18.58;;
13250;SDS011;6692;50.710;7.180;2022-12-18T10:17:02;29.45;;;18.70;;
13250;SDS011;6692;50.710;7.180;2022-12-18T10:21:23;29.70;;;18.17;;
13250;SDS011;6692;50.710;7.180;2022-12-18T10:23:41;29.33;;;18.80;;
13250;SDS011;6692;50.710;7.180;2022-12-18T10:25:48;30.58;;;16.80;;
13250;SDS011;6692;50.710;7.180;2022-12-18T10:28:03;27.37;;;17.50;;
13250;SDS011;6692;50.710;7.180;2022-12-18T10:30:04;30.42;;;17.62;;
13250;SDS011;6692;50.710;7.180;2022-12-18T10:32:02;27.00;;;17.93;;
13250;SDS011;6692;50.710;7.180;2022-12-18T10:34:02;28.23;;;18.77;;
13250;SDS011;6692;50.710;7.180;2022-12-18T10:36:04;24.77;;;16.53;;
13250;SDS011;6692;50.710;7.180;2022-12-18T10:38:22;24.58;;;16.02;;
13250;SDS011;6692;50.710;7.180;2022-12-18T10:40:22;25.90;;;16.02;;
13250;SDS011;6692;50.710;7.180;2022-12-18T10:42:23;27.57;;;16.70;;
13250;SDS011;6692;50.710;7.180;2022-12-18T10:44:23;24.27;;;16.37;;
13250;SDS011;6692;50.710;7.180;2022-12-18T10:46:27;28.15;;;16.70;;
13250;SDS011;6692;50.710;7.180;2022-12-18T10:48:28;26.00;;;17.70;;
13250;SDS011;6692;50.710;7.180;2022-12-18T10:50:32;27.47;;;17.17;;
13250;SDS011;6692;50.710;7.180;2022-12-18T10:52:32;26.73;;;17.40;;
13250;SDS011;6692;50.710;7.180;2022-12-18T10:54:33;26.03;;;17.17;;
13250;SDS011;6692;50.710;7.180;2022-12-18T10:56:35;26.10;;;16.20;;
13250;SDS011;6692;50.710;7.180;2022-12-18T10:58:36;28.50;;;16.57;;
13250;SDS011;6692;50.710;7.180;2022-12-18T11:00:36;26.90;;;17.50;;
13250;SDS011;6692;50.710;7.180;2022-12-18T11:02:38;26.83;;;17.37;;
13250;SDS011;6692;50.710;7.180;2022-12-18T11:04:50;25.10;;;16.50;;
13250;SDS011;6692;50.710;7.180;2022-12-18T11:06:52;23.13;;;15.37;;
13250;SDS011;6692;50.710;7.180;2022-12-18T11:08:41;24.33;;;15.73;;
13250;SDS011;6692;50.710;7.180;2022-12-18T11:10:40;26.73;;;17.10;;
13250;SDS011;6692;50.710;7.180;2022-12-18T11:12:42;25.63;;;16.83;;
13250;SDS011;6692;50.710;7.180;2022-12-18T11:14:43;25.30;;;16.17;;
13250;SDS011;6692;50.710;7.180;2022-12-18T11:16:44;24.50;;;16.63;;
13250;SDS011;6692;50.710;7.180;2022-12-18T11:18:44;24.63;;;15.90;;
13250;SDS011;6692;50.710;7.180;2022-12-18T11:20:49;25.90;;;15.63;;
13250;SDS011;6692;50.710;7.180;2022-12-18T11:22:54;26.17;;;17.33;;
13250;SDS011;6692;50.710;7.180;2022-12-18T11:24:56;22.17;;;15.50;;
13250;SDS011;6692;50.710;7.180;2022-12-18T11:26:57;28.12;;;17.08;;
13250;SDS011;6692;50.710;7.180;2022-12-18T11:29:15;26.07;;;17.33;;
13250;SDS011;6692;50.710;7.180;2022-12-18T11:31:19;26.90;;;17.98;;
13250;SDS011;6692;50.710;7.180;2022-12-18T11:33:20;25.10;;;16.85;;
13250;SDS011;6692;50.710;7.180;2022-12-18T11:35:21;23.33;;;16.60;;
13250;SDS011;6692;50.710;7.180;2022-12-18T11:37:36;27.87;;;17.87;;
13250;SDS011;6692;50.710;7.180;2022-12-18T11:39:39;23.97;;;16.20;;
13250;SDS011;6692;50.710;7.180;2022-12-18T11:41:40;27.97;;;18.03;;
13250;SDS011;6692;50.710;7.180;2022-12-18T11:43:54;26.65;;;18.23;;
13250;SDS011;6692;50.710;7.180;2022-12-18T11:45:59;27.37;;;17.30;;
13250;SDS011;6692;50.710;7.180;2022-12-18T11:48:03;28.52;;;17.40;;
13250;SDS011;6692;50.710;7.180;2022-12-18T11:50:20;26.33;;;18.70;;
13250;SDS011;6692;50.710;7.180;2022-12-18T11:52:22;27.98;;;18.23;;
13250;SDS011;6692;50.710;7.180;2022-12-18T11:54:21;28.35;;;17.67;;
13250;SDS011;6692;50.710;7.180;2022-12-18T11:56:27;25.47;;;18.33;;
13250;SDS011;6692;50.710;7.180;2022-12-18T11:58:34;28.55;;;17.90;;
13250;SDS011;6692;50.710;7.180;2022-12-18T12:00:30;26.75;;;18.08;;
13250;SDS011;6692;50.710;7.180;2022-12-18T12:04:50;28.58;;;17.77;;
13250;SDS011;6692;50.710;7.180;2022-12-18T12:09:02;27.87;;;18.20;;
13250;SDS011;6692;50.710;7.180;2022-12-18T12:13:27;29.17;;;20.02;;
13250;SDS011;6692;50.710;7.180;2022-12-18T12:15:39;29.02;;;17.80;;
13250;SDS011;6692;50.710;7.180;2022-12-18T12:22:31;28.67;;;17.25;;
13250;SDS011;6692;50.710;7.180;2022-12-18T12:24:37;27.52;;;17.33;;
13250;SDS011;6692;50.710;7.180;2022-12-18T12:26:38;28.02;;;17.98;;
13250;SDS011;6692;50.710;7.180;2022-12-18T12:28:45;28.80;;;18.52;;